createdAt,value
2018-10-09T00:00:02.775Z,7.2
2018-10-09T00:01:04.502Z,7.3
2018-10-09T00:02:06.286Z,7.3
2018-10-09T00:03:08.108Z,7.3
2018-10-09T00:04:10.124Z,7.2
2018-10-09T00:05:11.804Z,7.2
2018-10-09T00:06:13.840Z,7.3
2018-10-09T00:07:15.607Z,7.3
2018-10-09T00:08:17.424Z,7.2
2018-10-09T00:09:19.180Z,7.3
2018-10-09T00:10:20.936Z,7.3
2018-10-09T00:11:22.653Z,7.2
2018-10-09T00:12:24.673Z,7.2
2018-10-09T00:13:26.414Z,7.2
2018-10-09T00:14:28.061Z,7.2
2018-10-09T00:15:29.837Z,7.2
2018-10-09T00:16:31.455Z,7.3
2018-10-09T00:17:33.109Z,7.3
2018-10-09T00:18:34.859Z,7.2
2018-10-09T00:19:36.553Z,7.2
2018-10-09T00:20:38.335Z,7.2
2018-10-09T00:21:40.062Z,7.3
2018-10-09T00:22:41.917Z,7.2
2018-10-09T00:23:44.006Z,7.2
2018-10-09T00:24:45.883Z,7.3
2018-10-09T00:25:47.690Z,7.3
2018-10-09T00:26:49.497Z,7.3
2018-10-09T00:27:51.231Z,7.3
2018-10-09T00:28:53.088Z,7.3
2018-10-09T00:29:54.999Z,7.2
2018-10-09T00:30:57.178Z,7.3
2018-10-09T00:31:59.438Z,7.2
2018-10-09T00:33:01.670Z,7.2
2018-10-09T00:34:03.718Z,7.2
2018-10-09T00:35:06.047Z,7.2
2018-10-09T00:36:07.904Z,7.3
2018-10-09T00:37:10.004Z,7.3
2018-10-09T00:38:12.047Z,7.2
2018-10-09T00:39:14.171Z,7.2
2018-10-09T00:40:17.700Z,7.2
2018-10-09T00:41:19.489Z,7.2
2018-10-09T00:42:21.173Z,7.2
2018-10-09T00:43:23.023Z,7.2
2018-10-09T00:44:24.676Z,7.2
2018-10-09T00:45:26.389Z,7.2
2018-10-09T00:46:28.391Z,7.2
2018-10-09T00:47:30.070Z,7.1
2018-10-09T00:48:31.757Z,7.2
2018-10-09T00:49:33.846Z,7.2
2018-10-09T00:51:15.992Z,7.2
2018-10-09T00:52:17.422Z,7.2
2018-10-09T00:53:59.026Z,7.1
2018-10-09T00:55:00.600Z,7.2
2018-10-09T00:56:02.145Z,7.1
2018-10-09T00:57:03.830Z,7.2
2018-10-09T00:58:05.651Z,7.2
2018-10-09T00:59:07.607Z,7.0
2018-10-09T01:00:09.641Z,7.1
2018-10-09T01:01:11.921Z,7.1
2018-10-09T01:02:13.676Z,7.0
2018-10-09T01:03:15.278Z,7.1
2018-10-09T01:04:17.774Z,7.1
2018-10-09T01:05:19.451Z,7.1
2018-10-09T01:06:21.055Z,7.1
2018-10-09T01:07:22.877Z,7.0
2018-10-09T01:08:24.658Z,7.0
2018-10-09T01:09:26.377Z,7.0
2018-10-09T01:10:28.348Z,7.0
2018-10-09T01:11:30.040Z,7.0
2018-10-09T01:12:32.023Z,7.0
2018-10-09T01:13:33.694Z,7.0
2018-10-09T01:14:35.686Z,7.0
2018-10-09T01:15:37.522Z,7.0
2018-10-09T01:16:39.333Z,7.0
2018-10-09T01:17:41.302Z,7.0
2018-10-09T01:18:46.285Z,7.0
2018-10-09T01:19:48.335Z,7.0
2018-10-09T01:20:50.340Z,7.0
2018-10-09T01:21:52.235Z,7.0
2018-10-09T01:22:54.289Z,6.9
2018-10-09T01:23:56.263Z,6.9
2018-10-09T01:24:58.325Z,6.9
2018-10-09T01:26:00.295Z,6.9
2018-10-09T01:27:02.275Z,6.9
2018-10-09T01:28:03.924Z,6.9
2018-10-09T01:29:05.981Z,6.9
2018-10-09T01:30:07.685Z,6.9
2018-10-09T01:31:09.658Z,6.9
2018-10-09T01:32:11.329Z,6.9
2018-10-09T01:33:13.062Z,7.0
2018-10-09T01:34:14.894Z,6.9
2018-10-09T01:35:16.801Z,6.9
2018-10-09T01:36:18.765Z,6.9
2018-10-09T01:37:20.820Z,7.0
2018-10-09T01:38:22.613Z,6.9
2018-10-09T01:39:24.363Z,6.9
2018-10-09T01:40:26.276Z,6.9
2018-10-09T01:41:28.091Z,6.9
2018-10-09T01:42:30.082Z,6.9
2018-10-09T01:43:32.374Z,6.9
2018-10-09T01:44:34.166Z,6.9
2018-10-09T01:45:36.038Z,6.9
2018-10-09T01:46:38.105Z,6.9
2018-10-09T01:47:40.095Z,6.8
2018-10-09T01:48:42.170Z,6.9
2018-10-09T01:49:44.150Z,6.8
2018-10-09T01:50:45.993Z,6.8
2018-10-09T01:51:47.952Z,6.8
2018-10-09T01:52:49.846Z,6.8
2018-10-09T01:53:51.607Z,6.8
2018-10-09T01:54:53.308Z,6.8
2018-10-09T01:55:55.206Z,6.7
2018-10-09T01:56:57.038Z,6.8
2018-10-09T01:57:58.883Z,6.8
2018-10-09T01:59:00.787Z,6.8
2018-10-09T02:00:02.508Z,6.8
2018-10-09T02:01:04.536Z,6.8
2018-10-09T02:02:06.370Z,6.8
2018-10-09T02:03:08.364Z,6.8
2018-10-09T02:04:10.388Z,6.7
2018-10-09T02:05:12.494Z,6.8
2018-10-09T02:06:14.487Z,6.7
2018-10-09T02:07:16.219Z,6.8
2018-10-09T02:08:18.012Z,6.7
2018-10-09T02:09:19.892Z,6.7
2018-10-09T02:10:21.571Z,6.7
2018-10-09T02:11:23.315Z,6.7
2018-10-09T02:12:25.218Z,6.7
2018-10-09T02:13:26.866Z,6.6
2018-10-09T02:14:28.529Z,6.7
2018-10-09T02:15:30.378Z,6.6
2018-10-09T02:16:32.153Z,6.6
2018-10-09T02:17:34.427Z,6.7
2018-10-09T02:18:36.733Z,6.7
2018-10-09T02:19:38.792Z,6.6
2018-10-09T02:20:40.886Z,6.7
2018-10-09T02:21:43.028Z,6.7
2018-10-09T02:22:45.047Z,6.7
2018-10-09T02:23:47.066Z,6.7
2018-10-09T02:24:49.198Z,6.6
2018-10-09T02:25:51.396Z,6.6
2018-10-09T02:26:53.521Z,6.6
2018-10-09T02:27:55.947Z,6.7
2018-10-09T02:28:57.941Z,6.7
2018-10-09T02:30:00.160Z,6.6
2018-10-09T02:31:02.136Z,6.7
2018-10-09T02:32:04.498Z,6.7
2018-10-09T02:33:06.379Z,6.7
2018-10-09T02:34:08.488Z,6.6
2018-10-09T02:35:10.479Z,6.6
2018-10-09T02:36:13.663Z,6.6
2018-10-09T02:37:15.637Z,6.7
2018-10-09T02:38:17.689Z,6.6
2018-10-09T02:39:19.608Z,6.6
2018-10-09T02:40:21.664Z,6.6
2018-10-09T02:41:23.796Z,6.6
2018-10-09T02:42:25.744Z,6.6
2018-10-09T02:43:27.688Z,6.6
2018-10-09T02:44:29.918Z,6.6
2018-10-09T02:45:31.853Z,6.6
2018-10-09T02:46:34.232Z,6.7
2018-10-09T02:47:36.469Z,6.6
2018-10-09T02:48:38.479Z,6.6
2018-10-09T02:49:40.625Z,6.6
2018-10-09T02:50:42.779Z,6.5
2018-10-09T02:51:44.880Z,6.6
2018-10-09T02:52:47.020Z,6.6
2018-10-09T02:53:49.340Z,6.6
2018-10-09T02:54:51.480Z,6.6
2018-10-09T02:55:53.733Z,6.6
2018-10-09T02:56:56.007Z,6.7
2018-10-09T02:57:58.189Z,6.6
2018-10-09T02:59:00.301Z,6.6
2018-10-09T03:00:02.335Z,6.6
2018-10-09T03:01:04.497Z,6.6
2018-10-09T03:02:06.721Z,6.6
2018-10-09T03:03:08.833Z,6.6
2018-10-09T03:04:11.036Z,6.6
2018-10-09T03:05:13.113Z,6.6
2018-10-09T03:06:15.161Z,6.6
2018-10-09T03:07:17.304Z,6.5
2018-10-09T03:08:19.524Z,6.6
2018-10-09T03:09:23.474Z,6.6
2018-10-09T03:10:25.674Z,6.6
2018-10-09T03:11:27.763Z,6.6
2018-10-09T03:12:29.823Z,6.6
2018-10-09T03:13:32.008Z,6.6
2018-10-09T03:14:33.750Z,6.5
2018-10-09T03:15:35.633Z,6.6
2018-10-09T03:16:39.894Z,6.5
2018-10-09T03:17:42.255Z,6.6
2018-10-09T03:18:44.453Z,6.5
2018-10-09T03:19:46.733Z,6.5
2018-10-09T03:20:48.391Z,6.5
2018-10-09T03:21:49.971Z,6.5
2018-10-09T03:22:51.653Z,6.5
2018-10-09T03:23:53.080Z,6.5
2018-10-09T03:24:54.517Z,6.5
2018-10-09T03:25:56.570Z,6.5
2018-10-09T03:26:58.020Z,6.5
2018-10-09T03:27:59.447Z,6.5
2018-10-09T03:29:01.115Z,6.5
2018-10-09T03:30:02.555Z,6.5
2018-10-09T03:31:04.017Z,6.5
2018-10-09T03:32:05.691Z,6.5
2018-10-09T03:33:07.122Z,6.4
2018-10-09T03:34:08.562Z,6.5
2018-10-09T03:35:10.131Z,6.5
2018-10-09T03:36:11.614Z,6.5
2018-10-09T03:37:13.029Z,6.5
2018-10-09T03:38:14.698Z,6.5
2018-10-09T03:39:16.146Z,6.4
2018-10-09T03:40:17.628Z,6.6
2018-10-09T03:41:19.588Z,6.4
2018-10-09T03:42:21.034Z,6.5
2018-10-09T03:43:22.711Z,6.5
2018-10-09T03:44:24.143Z,6.5
2018-10-09T03:45:25.867Z,6.4
2018-10-09T03:46:27.294Z,6.4
2018-10-09T03:47:28.871Z,6.5
2018-10-09T03:48:30.321Z,6.4
2018-10-09T03:49:31.961Z,6.5
2018-10-09T03:50:33.460Z,6.4
2018-10-09T03:51:34.869Z,6.4
2018-10-09T03:52:36.491Z,6.4
2018-10-09T03:53:37.934Z,6.4
2018-10-09T03:54:39.416Z,6.4
2018-10-09T03:55:41.014Z,6.4
2018-10-09T03:56:42.551Z,6.4
2018-10-09T03:57:44.020Z,6.4
2018-10-09T03:58:45.516Z,6.4
2018-10-09T03:59:46.923Z,6.4
2018-10-09T04:00:48.352Z,6.4
2018-10-09T04:01:49.861Z,6.4
2018-10-09T04:02:51.275Z,6.4
2018-10-09T04:03:52.749Z,6.4
2018-10-09T04:04:54.199Z,6.5
2018-10-09T04:05:55.837Z,6.4
2018-10-09T04:06:57.295Z,6.4
2018-10-09T04:07:58.890Z,6.3
2018-10-09T04:09:00.380Z,6.3
2018-10-09T04:10:02.030Z,6.4
2018-10-09T04:11:03.466Z,6.4
2018-10-09T04:12:05.061Z,6.4
2018-10-09T04:13:06.627Z,6.4
2018-10-09T04:14:08.200Z,6.4
2018-10-09T04:15:09.622Z,6.4
2018-10-09T04:16:11.248Z,6.4
2018-10-09T04:17:13.078Z,6.4
2018-10-09T04:18:14.534Z,6.3
2018-10-09T04:19:16.199Z,6.4
2018-10-09T04:20:17.621Z,6.4
2018-10-09T04:21:19.068Z,6.3
2018-10-09T04:22:20.727Z,6.4
2018-10-09T04:23:22.184Z,6.4
2018-10-09T04:24:23.659Z,6.3
2018-10-09T04:25:25.254Z,6.4
2018-10-09T04:26:26.689Z,6.4
2018-10-09T04:27:28.092Z,6.4
2018-10-09T04:28:29.730Z,6.3
2018-10-09T04:29:34.455Z,6.4
2018-10-09T04:30:35.894Z,6.3
2018-10-09T04:31:37.361Z,6.3
2018-10-09T04:32:39.037Z,6.3
2018-10-09T04:33:40.864Z,6.4
2018-10-09T04:34:42.520Z,6.4
2018-10-09T04:35:44.039Z,6.3
2018-10-09T04:36:45.604Z,6.3
2018-10-09T04:37:47.061Z,6.3
2018-10-09T04:38:48.684Z,6.4
2018-10-09T04:39:50.132Z,6.3
2018-10-09T04:40:51.766Z,6.3
2018-10-09T04:41:53.222Z,6.3
2018-10-09T04:42:54.865Z,6.3
2018-10-09T04:43:56.294Z,6.2
2018-10-09T04:44:57.950Z,6.2
2018-10-09T04:45:59.442Z,6.3
2018-10-09T04:47:00.910Z,6.3
2018-10-09T04:48:02.455Z,6.2
2018-10-09T04:49:03.875Z,6.2
2018-10-09T04:50:05.312Z,6.2
2018-10-09T04:51:06.775Z,6.2
2018-10-09T04:52:08.225Z,6.2
2018-10-09T04:53:10.244Z,6.3
2018-10-09T04:54:11.639Z,6.2
2018-10-09T04:55:13.124Z,6.2
2018-10-09T04:56:14.556Z,6.2
2018-10-09T04:57:16.014Z,6.2
2018-10-09T04:58:17.444Z,6.2
2018-10-09T04:59:18.926Z,6.1
2018-10-09T05:00:20.352Z,6.2
2018-10-09T05:01:21.986Z,6.2
2018-10-09T05:02:23.459Z,6.2
2018-10-09T05:03:24.968Z,6.2
2018-10-09T05:04:26.589Z,6.2
2018-10-09T05:05:28.015Z,6.2
2018-10-09T05:06:29.454Z,6.2
2018-10-09T05:07:31.089Z,6.2
2018-10-09T05:08:32.616Z,6.2
2018-10-09T05:09:34.127Z,6.1
2018-10-09T05:10:35.660Z,6.2
2018-10-09T05:11:37.224Z,6.2
2018-10-09T05:12:38.713Z,6.1
2018-10-09T05:13:40.377Z,6.2
2018-10-09T05:14:41.869Z,6.2
2018-10-09T05:15:43.404Z,6.2
2018-10-09T05:16:44.863Z,6.2
2018-10-09T05:17:46.664Z,6.1
2018-10-09T05:18:48.046Z,6.1
2018-10-09T05:19:49.617Z,6.2
2018-10-09T05:20:51.100Z,6.1
2018-10-09T05:21:52.689Z,6.1
2018-10-09T05:22:54.186Z,6.1
2018-10-09T05:23:55.761Z,6.2
2018-10-09T05:24:57.255Z,6.1
2018-10-09T05:25:58.805Z,6.2
2018-10-09T05:27:00.264Z,6.1
2018-10-09T05:28:01.701Z,6.1
2018-10-09T05:29:03.343Z,6.1
2018-10-09T05:30:04.818Z,6.1
2018-10-09T05:31:06.332Z,6.1
2018-10-09T05:32:07.927Z,6.2
2018-10-09T05:33:09.476Z,6.2
2018-10-09T05:34:10.934Z,6.1
2018-10-09T05:35:12.810Z,6.2
2018-10-09T05:36:14.269Z,6.1
2018-10-09T05:37:15.724Z,6.1
2018-10-09T05:38:17.391Z,6.1
2018-10-09T05:39:18.830Z,6.1
2018-10-09T05:40:20.423Z,6.1
2018-10-09T05:41:21.887Z,6.1
2018-10-09T05:42:23.586Z,6.1
2018-10-09T05:43:25.144Z,6.1
2018-10-09T05:44:26.704Z,6.1
2018-10-09T05:45:28.170Z,6.1
2018-10-09T05:46:29.777Z,6.1
2018-10-09T05:47:31.213Z,6.1
2018-10-09T05:48:32.930Z,6.1
2018-10-09T05:49:34.342Z,6.1
2018-10-09T05:50:35.888Z,6.1
2018-10-09T05:51:37.345Z,6.1
2018-10-09T05:52:39.081Z,6.1
2018-10-09T05:53:40.428Z,6.1
2018-10-09T05:54:42.017Z,6.0
2018-10-09T05:55:43.480Z,6.1
2018-10-09T05:56:46.128Z,6.1
2018-10-09T05:57:47.600Z,6.2
2018-10-09T05:58:49.018Z,6.2
2018-10-09T05:59:50.447Z,6.2
2018-10-09T06:00:51.876Z,6.3
2018-10-09T06:01:53.353Z,6.2
2018-10-09T06:02:54.999Z,6.2
2018-10-09T06:03:56.442Z,6.3
2018-10-09T06:04:58.132Z,6.3
2018-10-09T06:05:59.683Z,6.3
2018-10-09T06:07:01.176Z,6.3
2018-10-09T06:08:02.609Z,6.3
2018-10-09T06:09:04.027Z,6.4
2018-10-09T06:10:05.698Z,6.4
2018-10-09T06:11:07.145Z,6.3
2018-10-09T06:12:08.573Z,6.3
2018-10-09T06:13:10.206Z,6.4
2018-10-09T06:14:11.639Z,6.4
2018-10-09T06:15:13.077Z,6.4
2018-10-09T06:16:14.578Z,6.4
2018-10-09T06:17:16.048Z,6.4
2018-10-09T06:18:17.478Z,6.4
2018-10-09T06:19:19.126Z,6.4
2018-10-09T06:20:20.571Z,6.4
2018-10-09T06:21:22.087Z,6.5
2018-10-09T06:22:23.645Z,6.5
2018-10-09T06:23:25.083Z,6.5
2018-10-09T06:24:26.685Z,6.6
2018-10-09T06:25:28.181Z,6.5
2018-10-09T06:26:29.836Z,6.6
2018-10-09T06:27:31.318Z,6.7
2018-10-09T06:28:33.035Z,6.7
2018-10-09T06:29:34.395Z,6.7
2018-10-09T06:30:35.916Z,6.8
2018-10-09T06:31:37.429Z,6.8
2018-10-09T06:32:39.262Z,6.8
2018-10-09T06:33:40.728Z,6.8
2018-10-09T06:34:42.352Z,7.0
2018-10-09T06:35:43.870Z,6.9
2018-10-09T06:36:45.409Z,7.0
2018-10-09T06:37:46.858Z,7.0
2018-10-09T06:38:48.542Z,7.2
2018-10-09T06:39:50.055Z,7.1
2018-10-09T06:40:51.701Z,7.2
2018-10-09T06:41:53.221Z,7.3
2018-10-09T06:42:55.019Z,7.3
2018-10-09T06:43:56.457Z,7.3
2018-10-09T06:44:58.070Z,7.4
2018-10-09T06:45:59.598Z,7.4
2018-10-09T06:47:01.341Z,7.5
2018-10-09T06:48:02.815Z,7.6
2018-10-09T06:49:04.408Z,7.6
2018-10-09T06:50:05.848Z,7.6
2018-10-09T06:51:07.546Z,7.7
2018-10-09T06:52:09.015Z,7.8
2018-10-09T06:53:10.449Z,7.8
2018-10-09T06:54:12.192Z,7.9
2018-10-09T06:55:13.484Z,7.9
2018-10-09T06:56:14.934Z,8.0
2018-10-09T06:57:16.579Z,8.0
2018-10-09T06:58:18.041Z,8.1
2018-10-09T06:59:19.497Z,8.1
2018-10-09T07:00:21.245Z,8.1
2018-10-09T07:01:22.560Z,8.2
2018-10-09T07:02:24.257Z,8.2
2018-10-09T07:03:25.682Z,8.3
2018-10-09T07:04:27.138Z,8.3
2018-10-09T07:05:28.667Z,8.3
2018-10-09T07:06:30.114Z,8.3
2018-10-09T07:07:31.587Z,8.4
2018-10-09T07:08:33.150Z,8.4
2018-10-09T07:09:34.569Z,8.4
2018-10-09T07:10:36.220Z,8.5
2018-10-09T07:11:37.700Z,8.4
2018-10-09T07:12:39.309Z,8.5
2018-10-09T07:13:40.736Z,8.5
2018-10-09T07:14:42.177Z,8.5
2018-10-09T07:15:43.802Z,8.6
2018-10-09T07:16:45.226Z,8.6
2018-10-09T07:17:46.641Z,8.6
2018-10-09T07:18:48.109Z,8.7
2018-10-09T07:19:49.515Z,8.7
2018-10-09T07:20:50.991Z,8.8
2018-10-09T07:21:52.420Z,8.9
2018-10-09T07:22:53.883Z,9.0
2018-10-09T07:23:55.314Z,9.0
2018-10-09T07:24:56.746Z,9.1
2018-10-09T07:25:58.197Z,9.1
2018-10-09T07:26:59.646Z,9.2
2018-10-09T07:28:01.108Z,9.2
2018-10-09T07:29:02.556Z,9.2
2018-10-09T07:30:04.065Z,9.3
2018-10-09T07:31:05.658Z,9.3
2018-10-09T07:32:07.088Z,9.3
2018-10-09T07:33:08.695Z,9.3
2018-10-09T07:34:10.113Z,9.3
2018-10-09T07:35:11.578Z,9.2
2018-10-09T07:36:12.992Z,9.2
2018-10-09T07:37:14.545Z,9.1
2018-10-09T07:38:15.966Z,9.1
2018-10-09T07:39:17.371Z,9.2
2018-10-09T07:40:18.988Z,9.2
2018-10-09T07:41:20.427Z,9.1
2018-10-09T07:42:21.853Z,9.1
2018-10-09T07:43:23.308Z,9.1
2018-10-09T07:44:24.776Z,9.1
2018-10-09T07:45:26.219Z,9.1
2018-10-09T07:46:27.632Z,9.1
2018-10-09T07:47:29.290Z,9.2
2018-10-09T07:48:30.712Z,9.2
2018-10-09T07:49:32.184Z,9.2
2018-10-09T07:50:33.595Z,9.3
2018-10-09T07:51:35.264Z,9.3
2018-10-09T07:52:36.690Z,9.3
2018-10-09T07:53:38.342Z,9.3
2018-10-09T07:54:39.873Z,9.4
2018-10-09T07:55:41.298Z,9.4
2018-10-09T07:56:42.858Z,9.5
2018-10-09T07:57:44.272Z,9.5
2018-10-09T07:58:45.707Z,9.5
2018-10-09T07:59:47.166Z,9.5
2018-10-09T08:00:48.567Z,9.6
2018-10-09T08:01:49.994Z,9.7
2018-10-09T08:02:51.480Z,9.7
2018-10-09T08:03:52.903Z,9.7
2018-10-09T08:04:54.391Z,9.9
2018-10-09T08:05:55.904Z,9.9
2018-10-09T08:06:57.318Z,10.0
2018-10-09T08:07:59.057Z,10.1
2018-10-09T08:09:00.514Z,10.2
2018-10-09T08:10:02.143Z,10.3
2018-10-09T08:11:03.571Z,10.4
2018-10-09T08:12:05.249Z,10.4
2018-10-09T08:13:06.682Z,10.4
2018-10-09T08:14:08.108Z,10.6
2018-10-09T08:15:09.748Z,10.5
2018-10-09T08:16:11.162Z,10.6
2018-10-09T08:17:12.616Z,10.7
2018-10-09T08:18:14.245Z,10.8
2018-10-09T08:19:15.683Z,10.8
2018-10-09T08:20:17.107Z,10.8
2018-10-09T08:21:18.885Z,10.9
2018-10-09T08:22:20.346Z,10.9
2018-10-09T08:23:21.737Z,11.0
2018-10-09T08:24:23.304Z,11.1
2018-10-09T08:25:24.762Z,11.1
2018-10-09T08:26:26.381Z,11.0
2018-10-09T08:27:27.851Z,11.1
2018-10-09T08:28:29.504Z,11.2
2018-10-09T08:29:30.945Z,11.2
2018-10-09T08:30:32.580Z,11.1
2018-10-09T08:31:34.092Z,11.1
2018-10-09T08:32:35.844Z,11.2
2018-10-09T08:33:37.996Z,11.1
2018-10-09T08:34:39.726Z,11.2
2018-10-09T08:35:41.181Z,11.2
2018-10-09T08:36:42.614Z,11.1
2018-10-09T08:37:44.058Z,11.2
2018-10-09T08:38:45.719Z,11.1
2018-10-09T08:39:47.150Z,11.2
2018-10-09T08:40:48.585Z,11.1
2018-10-09T08:41:50.286Z,11.1
2018-10-09T08:42:51.575Z,11.2
2018-10-09T08:43:53.019Z,11.1
2018-10-09T08:44:54.773Z,11.2
2018-10-09T08:45:56.234Z,11.3
2018-10-09T08:46:57.646Z,11.3
2018-10-09T08:47:59.091Z,11.4
2018-10-09T08:49:00.497Z,11.6
2018-10-09T08:50:02.165Z,11.5
2018-10-09T08:51:03.592Z,11.7
2018-10-09T08:52:05.328Z,11.8
2018-10-09T08:53:06.702Z,12.0
2018-10-09T08:54:08.346Z,12.1
2018-10-09T08:55:09.783Z,12.3
2018-10-09T08:56:11.426Z,12.5
2018-10-09T08:57:13.292Z,12.5
2018-10-09T08:58:14.914Z,12.8
2018-10-09T08:59:16.347Z,12.8
2018-10-09T09:00:18.004Z,13.0
2018-10-09T09:01:19.423Z,13.0
2018-10-09T09:02:21.112Z,13.1
2018-10-09T09:03:22.545Z,13.2
2018-10-09T09:04:24.172Z,13.4
2018-10-09T09:05:25.606Z,13.4
2018-10-09T09:06:27.032Z,13.4
2018-10-09T09:07:28.704Z,13.5
2018-10-09T09:08:30.134Z,13.6
2018-10-09T09:09:31.599Z,13.6
2018-10-09T09:10:33.232Z,13.7
2018-10-09T09:11:35.095Z,13.6
2018-10-09T09:12:36.545Z,13.7
2018-10-09T09:13:38.151Z,13.6
2018-10-09T09:14:39.719Z,13.7
2018-10-09T09:15:41.094Z,13.8
2018-10-09T09:16:42.727Z,13.8
2018-10-09T09:17:44.162Z,13.9
2018-10-09T09:18:45.757Z,14.0
2018-10-09T09:19:47.201Z,14.1
2018-10-09T09:20:48.657Z,14.2
2018-10-09T09:21:50.388Z,14.3
2018-10-09T09:22:51.827Z,14.3
2018-10-09T09:23:53.333Z,14.4
2018-10-09T09:24:55.029Z,14.5
2018-10-09T09:25:56.475Z,14.6
2018-10-09T09:26:58.104Z,14.8
2018-10-09T09:27:59.839Z,14.9
2018-10-09T09:29:01.424Z,15.0
2018-10-09T09:30:02.985Z,15.1
2018-10-09T09:31:04.427Z,15.3
2018-10-09T09:32:06.164Z,15.3
2018-10-09T09:33:07.663Z,15.4
2018-10-09T09:34:09.057Z,15.5
2018-10-09T09:35:10.601Z,15.5
2018-10-09T09:36:12.091Z,15.6
2018-10-09T09:37:13.541Z,15.6
2018-10-09T09:38:15.211Z,15.6
2018-10-09T09:39:16.625Z,15.6
2018-10-09T09:40:18.089Z,15.6
2018-10-09T09:41:19.815Z,15.7
2018-10-09T09:42:21.262Z,15.6
2018-10-09T09:43:22.712Z,15.6
2018-10-09T09:44:24.146Z,15.6
2018-10-09T09:45:25.611Z,15.6
2018-10-09T09:46:27.075Z,15.6
2018-10-09T09:47:28.749Z,15.5
2018-10-09T09:48:30.217Z,15.5
2018-10-09T09:49:31.707Z,15.5
2018-10-09T09:50:33.324Z,15.3
2018-10-09T09:51:34.769Z,15.3
2018-10-09T09:52:36.232Z,15.2
2018-10-09T09:53:37.828Z,15.1
2018-10-09T09:54:39.282Z,15.1
2018-10-09T09:55:40.718Z,15.1
2018-10-09T09:56:42.409Z,15.0
2018-10-09T09:57:43.944Z,15.0
2018-10-09T09:58:45.558Z,14.9
2018-10-09T09:59:46.878Z,14.9
2018-10-09T10:00:48.367Z,15.0
2018-10-09T10:01:50.274Z,15.0
2018-10-09T10:02:51.704Z,15.0
2018-10-09T10:03:53.223Z,15.1
2018-10-09T10:04:54.751Z,15.1
2018-10-09T10:05:56.251Z,15.1
2018-10-09T10:06:57.732Z,15.1
2018-10-09T10:07:59.258Z,15.2
2018-10-09T10:09:00.724Z,15.2
2018-10-09T10:10:02.373Z,15.3
2018-10-09T10:11:03.811Z,15.2
2018-10-09T10:12:05.343Z,15.2
2018-10-09T10:13:06.785Z,15.2
2018-10-09T10:14:08.502Z,15.3
2018-10-09T10:15:09.979Z,15.3
2018-10-09T10:16:11.512Z,15.3
2018-10-09T10:17:12.989Z,15.3
2018-10-09T10:18:14.604Z,15.4
2018-10-09T10:19:16.108Z,15.4
2018-10-09T10:20:17.746Z,15.4
2018-10-09T10:21:19.230Z,15.4
2018-10-09T10:22:20.692Z,15.5
2018-10-09T10:23:22.319Z,15.5
2018-10-09T10:24:23.892Z,15.4
2018-10-09T10:25:25.448Z,15.5
2018-10-09T10:26:27.012Z,15.6
2018-10-09T10:27:28.449Z,15.6
2018-10-09T10:28:30.136Z,15.5
2018-10-09T10:29:31.740Z,15.6
2018-10-09T10:30:33.223Z,15.6
2018-10-09T10:31:34.763Z,15.6
2018-10-09T10:32:36.486Z,15.5
2018-10-09T10:33:38.023Z,15.6
2018-10-09T10:34:39.481Z,15.5
2018-10-09T10:35:41.306Z,15.5
2018-10-09T10:36:42.830Z,15.6
2018-10-09T10:37:44.241Z,15.6
2018-10-09T10:38:45.944Z,15.7
2018-10-09T10:39:47.509Z,15.8
2018-10-09T10:40:48.961Z,15.8
2018-10-09T10:41:50.695Z,15.8
2018-10-09T10:42:52.178Z,15.9
2018-10-09T10:43:53.791Z,15.9
2018-10-09T10:44:55.291Z,16.0
2018-10-09T10:45:57.282Z,16.1
2018-10-09T10:46:58.719Z,16.1
2018-10-09T10:48:00.206Z,16.2
2018-10-09T10:49:01.849Z,16.1
2018-10-09T10:50:03.269Z,16.0
2018-10-09T10:51:04.885Z,16.2
2018-10-09T10:52:06.413Z,16.1
2018-10-09T10:53:07.888Z,16.1
2018-10-09T10:54:09.652Z,16.2
2018-10-09T10:55:11.125Z,16.1
2018-10-09T10:56:12.574Z,16.2
2018-10-09T10:57:14.311Z,16.2
2018-10-09T10:58:15.873Z,16.2
2018-10-09T10:59:17.301Z,16.2
2018-10-09T11:00:19.034Z,16.2
2018-10-09T11:01:20.546Z,16.2
2018-10-09T11:02:21.970Z,16.1
2018-10-09T11:03:23.639Z,16.2
2018-10-09T11:04:25.076Z,16.2
2018-10-09T11:05:26.544Z,16.2
2018-10-09T11:06:28.095Z,16.2
2018-10-09T11:07:29.571Z,16.2
2018-10-09T11:08:31.257Z,16.2
2018-10-09T11:09:32.625Z,16.2
2018-10-09T11:10:34.298Z,16.2
2018-10-09T11:11:35.734Z,16.2
2018-10-09T11:12:37.211Z,16.2
2018-10-09T11:13:38.805Z,16.2
2018-10-09T11:14:40.263Z,16.2
2018-10-09T11:15:41.667Z,16.3
2018-10-09T11:16:43.406Z,16.3
2018-10-09T11:17:44.914Z,16.2
2018-10-09T11:18:46.364Z,16.4
2018-10-09T11:19:48.045Z,16.3
2018-10-09T11:20:49.495Z,16.3
2018-10-09T11:21:50.959Z,16.4
2018-10-09T11:22:52.587Z,16.4
2018-10-09T11:23:54.069Z,16.5
2018-10-09T11:24:55.588Z,16.5
2018-10-09T11:25:57.068Z,16.5
2018-10-09T11:26:58.544Z,16.5
2018-10-09T11:28:00.177Z,16.5
2018-10-09T11:29:01.679Z,16.6
2018-10-09T11:30:03.188Z,16.6
2018-10-09T11:31:04.895Z,16.6
2018-10-09T11:32:06.395Z,16.6
2018-10-09T11:33:07.844Z,16.6
2018-10-09T11:34:09.544Z,16.7
2018-10-09T11:35:10.973Z,16.7
2018-10-09T11:36:12.511Z,16.7
2018-10-09T11:37:13.964Z,16.8
2018-10-09T11:38:15.534Z,16.9
2018-10-09T11:39:16.995Z,16.9
2018-10-09T11:40:18.625Z,16.9
2018-10-09T11:41:20.079Z,16.9
2018-10-09T11:42:21.726Z,17.0
2018-10-09T11:43:23.207Z,17.0
2018-10-09T11:44:24.798Z,17.1
2018-10-09T11:45:26.638Z,17.1
2018-10-09T11:46:28.307Z,17.1
2018-10-09T11:47:29.798Z,17.2
2018-10-09T11:48:31.387Z,17.3
2018-10-09T11:49:32.853Z,17.3
2018-10-09T11:50:34.477Z,17.3
2018-10-09T11:51:35.939Z,17.3
2018-10-09T11:52:37.412Z,17.5
2018-10-09T11:53:38.857Z,17.5
2018-10-09T11:54:40.368Z,17.6
2018-10-09T11:55:41.901Z,17.6
2018-10-09T11:56:43.757Z,17.7
2018-10-09T11:57:45.203Z,17.8
2018-10-09T11:58:46.926Z,18.0
2018-10-09T11:59:48.218Z,17.8
2018-10-09T12:00:49.694Z,18.0
2018-10-09T12:01:51.327Z,18.1
2018-10-09T12:02:52.833Z,18.3
2018-10-09T12:03:54.226Z,18.3
2018-10-09T12:04:55.950Z,18.5
2018-10-09T12:05:57.419Z,18.5
2018-10-09T12:06:58.855Z,18.6
2018-10-09T12:08:00.428Z,18.7
2018-10-09T12:09:01.870Z,18.7
2018-10-09T12:10:03.320Z,18.8
2018-10-09T12:11:04.979Z,19.0
2018-10-09T12:12:06.415Z,18.9
2018-10-09T12:13:07.849Z,19.0
2018-10-09T12:14:09.537Z,19.0
2018-10-09T12:15:10.995Z,19.0
2018-10-09T12:16:12.482Z,19.0
2018-10-09T12:17:14.044Z,19.0
2018-10-09T12:18:15.507Z,19.1
2018-10-09T12:19:16.952Z,19.1
2018-10-09T12:20:18.486Z,19.0
2018-10-09T12:21:19.932Z,19.1
2018-10-09T12:22:21.356Z,19.2
2018-10-09T12:23:23.121Z,19.2
2018-10-09T12:24:24.577Z,19.2
2018-10-09T12:25:26.183Z,19.3
2018-10-09T12:26:27.595Z,19.3
2018-10-09T12:27:29.261Z,19.3
2018-10-09T12:28:30.680Z,19.3
2018-10-09T12:29:32.260Z,19.3
2018-10-09T12:30:33.800Z,19.4
2018-10-09T12:31:35.432Z,19.3
2018-10-09T12:32:36.868Z,19.4
2018-10-09T12:33:38.470Z,19.4
2018-10-09T12:34:39.998Z,19.4
2018-10-09T12:35:41.607Z,19.4
2018-10-09T12:36:43.047Z,19.4
2018-10-09T12:37:44.495Z,19.4
2018-10-09T12:38:46.131Z,19.4
2018-10-09T12:39:47.574Z,19.4
2018-10-09T12:40:49.062Z,19.4
2018-10-09T12:41:50.586Z,19.4
2018-10-09T12:42:52.028Z,19.4
2018-10-09T12:43:53.516Z,19.5
2018-10-09T12:44:55.118Z,19.4
2018-10-09T12:45:56.577Z,19.5
2018-10-09T12:46:58.198Z,19.5
2018-10-09T12:47:59.666Z,19.5
2018-10-09T12:49:01.130Z,19.6
2018-10-09T12:50:02.755Z,19.7
2018-10-09T12:51:04.238Z,19.6
2018-10-09T12:52:06.072Z,19.8
2018-10-09T12:53:07.908Z,19.8
2018-10-09T12:54:09.279Z,19.8
2018-10-09T12:55:10.728Z,19.9
2018-10-09T12:56:12.291Z,19.9
2018-10-09T12:57:14.042Z,19.9
2018-10-09T12:58:15.358Z,20.0
2018-10-09T12:59:16.960Z,19.9
2018-10-09T13:00:18.627Z,19.9
2018-10-09T13:01:20.136Z,19.9
2018-10-09T13:02:21.660Z,20.1
2018-10-09T13:03:23.114Z,20.0
2018-10-09T13:04:24.566Z,20.0
2018-10-09T13:05:26.175Z,20.0
2018-10-09T13:06:27.628Z,20.1
2018-10-09T13:07:29.901Z,20.1
2018-10-09T13:08:31.508Z,20.0
2018-10-09T13:09:33.031Z,20.1
2018-10-09T13:10:34.635Z,20.1
2018-10-09T13:11:36.081Z,20.1
2018-10-09T13:12:37.791Z,20.1
2018-10-09T13:13:39.234Z,20.1
2018-10-09T13:14:40.714Z,20.1
2018-10-09T13:15:42.236Z,20.1
2018-10-09T13:16:43.681Z,20.1
2018-10-09T13:17:45.141Z,20.2
2018-10-09T13:18:46.774Z,20.2
2018-10-09T13:19:48.221Z,20.1
2018-10-09T13:20:49.878Z,20.1
2018-10-09T13:21:51.475Z,20.2
2018-10-09T13:22:53.014Z,20.1
2018-10-09T13:23:54.353Z,20.1
2018-10-09T13:24:55.813Z,20.1
2018-10-09T13:25:57.455Z,20.1
2018-10-09T13:26:58.997Z,20.0
2018-10-09T13:28:00.392Z,20.0
2018-10-09T13:29:02.000Z,20.0
2018-10-09T13:30:03.495Z,20.0
2018-10-09T13:31:05.074Z,20.1
2018-10-09T13:32:06.620Z,20.1
2018-10-09T13:33:08.164Z,20.1
2018-10-09T13:34:09.623Z,20.0
2018-10-09T13:35:11.246Z,20.1
2018-10-09T13:36:12.722Z,19.9
2018-10-09T13:37:14.368Z,19.9
2018-10-09T13:38:16.032Z,19.9
2018-10-09T13:39:17.712Z,20.0
2018-10-09T13:40:19.173Z,20.1
2018-10-09T13:41:20.858Z,20.1
2018-10-09T13:42:22.303Z,20.0
2018-10-09T13:43:23.766Z,20.0
2018-10-09T13:44:25.487Z,20.0
2018-10-09T13:45:26.931Z,20.1
2018-10-09T13:46:28.525Z,20.0
2018-10-09T13:47:30.328Z,20.0
2018-10-09T13:48:31.730Z,20.0
2018-10-09T13:49:33.209Z,20.1
2018-10-09T13:50:34.989Z,20.0
2018-10-09T13:51:36.432Z,20.1
2018-10-09T13:52:37.907Z,20.1
2018-10-09T13:53:39.555Z,20.1
2018-10-09T13:54:41.467Z,20.2
2018-10-09T13:55:43.036Z,20.1
2018-10-09T13:56:44.629Z,20.1
2018-10-09T13:57:46.060Z,20.1